Time;durP1;ratioP1;P1;durP2;ratioP2;P2;SDS_P1;SDS_P2;PMS_P1;PMS_P2;Temp;Humidity;BMP_temperature;BMP_pressure;BME280_temperature;BME280_humidity;BME280_pressure;Samples;Min_cycle;Max_cycle;Signal;HPM_P1;HPM_P2
2022/11/01 00:01:21;;;;;;;47.60;33.90;;;14.80;99.90;;;;;;5094965;28;20612;-66
2022/11/01 00:03:48;;;;;;;42.50;32.90;;;14.80;99.90;;;;;;5094505;28;20489;-67
2022/11/01 00:06:16;;;;;;;43.43;31.57;;;14.80;99.90;;;;;;5094861;28;20461;-67
2022/11/01 00:08:42;;;;;;;43.60;31.93;;;14.80;99.90;;;;;;5094698;28;20548;-66
2022/11/01 00:11:13;;;;;;;44.10;33.20;;;14.80;99.90;;;;;;5094847;28;20949;-65
2022/11/01 00:13:41;;;;;;;41.27;32.77;;;14.80;99.90;;;;;;5094855;28;20865;-65
2022/11/01 00:16:08;;;;;;;44.53;34.27;;;14.80;99.90;;;;;;5094808;28;20457;-65
2022/11/01 00:18:36;;;;;;;39.43;32.07;;;14.80;99.90;;;;;;5094534;28;20553;-65
2022/11/01 00:21:02;;;;;;;44.53;32.30;;;14.80;99.90;;;;;;5094355;28;20987;-67
2022/11/01 00:23:29;;;;;;;44.83;35.03;;;14.90;99.90;;;;;;5094548;28;20552;-67
2022/11/01 00:25:59;;;;;;;44.97;32.20;;;14.90;99.90;;;;;;5094507;28;20453;-65
2022/11/01 00:28:26;;;;;;;39.30;31.73;;;14.90;99.90;;;;;;5094678;28;20533;-65
2022/11/01 00:30:56;;;;;;;50.47;32.73;;;14.90;99.90;;;;;;5094322;28;20493;-66
2022/11/01 00:33:23;;;;;;;43.33;33.73;;;14.90;99.90;;;;;;5094267;28;20546;-65
2022/11/01 00:35:50;;;;;;;40.70;32.27;;;14.90;99.90;;;;;;5094657;28;20552;-65
2022/11/01 00:38:19;;;;;;;42.40;32.10;;;14.90;99.90;;;;;;5095091;28;20504;-65
2022/11/01 00:40:46;;;;;;;51.63;34.50;;;14.90;99.90;;;;;;5095318;28;20489;-66
2022/11/01 00:43:13;;;;;;;42.27;31.60;;;14.90;99.90;;;;;;5095132;28;20485;-66
2022/11/01 00:45:43;;;;;;;42.30;34.17;;;14.80;99.90;;;;;;5094578;28;20546;-66
2022/11/01 00:48:12;;;;;;;42.63;33.50;;;14.80;99.90;;;;;;5094378;28;20889;-66
2022/11/01 00:50:39;;;;;;;44.77;33.80;;;14.80;99.90;;;;;;5095029;28;20842;-66
2022/11/01 00:53:06;;;;;;;47.40;33.20;;;14.80;99.90;;;;;;5094352;28;20463;-66
2022/11/01 00:55:34;;;;;;;44.37;32.17;;;14.80;99.90;;;;;;5094016;28;20568;-66
2022/11/01 00:58:01;;;;;;;44.40;32.50;;;14.70;99.90;;;;;;5094417;28;20812;-66
2022/11/01 01:00:27;;;;;;;43.33;32.40;;;14.70;99.90;;;;;;5094610;28;20510;-66
2022/11/01 01:02:54;;;;;;;45.37;32.57;;;14.60;99.90;;;;;;5094610;28;20847;-66
2022/11/01 01:05:23;;;;;;;47.33;32.80;;;14.60;99.90;;;;;;5094164;28;20536;-66
2022/11/01 01:07:50;;;;;;;42.93;32.03;;;14.60;99.90;;;;;;5095539;28;20485;-66
2022/11/01 01:10:17;;;;;;;44.23;33.07;;;14.60;99.90;;;;;;5098393;28;20788;-66
2022/11/01 01:12:44;;;;;;;44.57;33.73;;;14.60;99.90;;;;;;5097886;28;20791;-65
2022/11/01 01:15:11;;;;;;;45.03;33.10;;;14.60;99.90;;;;;;5097620;28;20541;-65
2022/11/01 01:17:38;;;;;;;41.60;32.30;;;14.60;99.90;;;;;;5097434;28;20480;-67
2022/11/01 01:20:07;;;;;;;46.33;33.03;;;14.60;99.90;;;;;;5097513;28;20552;-66
2022/11/01 01:22:35;;;;;;;38.50;31.47;;;14.50;99.90;;;;;;5097890;28;20492;-66
2022/11/01 01:25:02;;;;;;;50.27;33.17;;;14.50;99.90;;;;;;5097857;28;20481;-65
2022/11/01 01:27:29;;;;;;;43.07;33.53;;;14.50;99.90;;;;;;5097481;28;20543;-65
2022/11/01 01:29:56;;;;;;;43.07;33.43;;;14.60;99.90;;;;;;5097675;28;20485;-65
2022/11/01 01:32:24;;;;;;;41.93;32.23;;;14.60;99.90;;;;;;5097257;28;20883;-67
2022/11/01 01:34:51;;;;;;;41.07;32.20;;;14.50;99.90;;;;;;5097435;28;20480;-67
2022/11/01 01:37:19;;;;;;;37.87;32.53;;;14.60;99.90;;;;;;5097345;28;20522;-66
2022/11/01 01:39:47;;;;;;;41.57;34.00;;;14.60;99.90;;;;;;5097720;28;20465;-65
2022/11/01 01:42:21;;;;;;;54.53;33.50;;;14.60;99.90;;;;;;5097481;28;20540;-66
2022/11/01 01:45:27;;;;;;;41.47;32.33;;;14.60;99.90;;;;;;5097281;28;20528;-66
2022/11/01 01:47:55;;;;;;;45.73;35.30;;;14.60;99.90;;;;;;5097513;28;20449;-66
2022/11/01 01:50:28;;;;;;;49.30;34.70;;;14.50;99.90;;;;;;5097415;28;20477;-66
2022/11/01 01:53:00;;;;;;;50.83;34.13;;;14.50;99.90;;;;;;5097688;28;20520;-66
2022/11/01 01:55:32;;;;;;;39.10;33.13;;;14.50;99.90;;;;;;5097113;28;20548;-66
2022/11/01 01:57:59;;;;;;;44.03;34.43;;;14.50;99.90;;;;;;5096984;28;20888;-66
2022/11/01 02:00:27;;;;;;;41.97;33.07;;;14.40;99.90;;;;;;5096977;28;20845;-66
2022/11/01 02:02:54;;;;;;;43.00;34.10;;;14.40;99.90;;;;;;5096741;28;20645;-65
2022/11/01 02:05:28;;;;;;;47.47;32.70;;;14.40;99.90;;;;;;5096864;28;20536;-66
2022/11/01 02:07:56;;;;;;;39.37;33.40;;;14.40;99.90;;;;;;5096664;28;20506;-66
2022/11/01 02:10:23;;;;;;;50.87;33.83;;;14.40;99.90;;;;;;5096591;28;20533;-66
2022/11/01 02:12:51;;;;;;;41.37;32.17;;;14.40;99.90;;;;;;5096573;28;20457;-65
2022/11/01 02:15:23;;;;;;;42.00;32.17;;;14.40;99.90;;;;;;5096516;28;20961;-65
2022/11/01 02:18:00;;;;;;;37.00;31.50;;;14.30;99.90;;;;;;5096383;28;20521;-65
2022/11/01 02:20:55;;;;;;;43.73;33.43;;;14.30;99.90;;;;;;5096347;28;20524;-65
2022/11/01 02:23:51;;;;;;;40.93;31.40;;;14.30;99.90;;;;;;5096604;28;20442;-66
2022/11/01 02:26:39;;;;;;;39.13;30.50;;;14.30;99.90;;;;;;5052889;28;20463;-66
2022/11/01 02:29:21;;;;;;;39.43;31.83;;;14.30;99.90;;;;;;5096179;28;20473;-66
2022/11/01 02:32:12;;;;;;;41.97;31.20;;;14.30;99.90;;;;;;5096640;28;20445;-65
2022/11/01 02:34:46;;;;;;;40.70;31.90;;;14.30;99.90;;;;;;5097198;28;20515;-65
2022/11/01 02:37:17;;;;;;;41.40;32.17;;;14.30;99.90;;;;;;5097846;28;20449;-67
2022/11/01 02:39:48;;;;;;;44.20;30.83;;;14.30;99.90;;;;;;5097402;28;20528;-67
2022/11/01 02:42:21;;;;;;;42.80;32.60;;;14.20;99.90;;;;;;5097230;28;20536;-65
2022/11/01 02:44:53;;;;;;;43.00;32.60;;;14.20;99.90;;;;;;5095868;28;20444;-66
2022/11/01 02:47:23;;;;;;;45.87;32.87;;;14.20;99.90;;;;;;5095621;28;20444;-65
2022/11/01 02:49:53;;;;;;;42.43;32.80;;;14.20;99.90;;;;;;5095779;28;20481;-66
2022/11/01 02:52:24;;;;;;;42.70;32.13;;;14.20;99.90;;;;;;5095455;28;20533;-66
2022/11/01 02:54:55;;;;;;;40.43;33.07;;;14.10;99.90;;;;;;5095989;28;20461;-66
2022/11/01 02:57:29;;;;;;;43.87;33.30;;;14.10;99.90;;;;;;5095700;28;20529;-66
2022/11/01 03:00:03;;;;;;;45.73;32.80;;;14.10;99.90;;;;;;5095706;28;20502;-66
2022/11/01 03:02:39;;;;;;;46.23;33.33;;;14.10;99.90;;;;;;5095576;28;20878;-66
2022/11/01 03:05:11;;;;;;;45.50;33.10;;;14.10;99.90;;;;;;5095475;28;20476;-65
2022/11/01 03:07:39;;;;;;;46.17;33.53;;;14.00;99.90;;;;;;5095185;28;20442;-65
2022/11/01 03:10:07;;;;;;;50.77;33.90;;;14.00;99.90;;;;;;5095715;28;20554;-66
2022/11/01 03:12:42;;;;;;;46.30;33.90;;;14.00;99.90;;;;;;5096145;28;20963;-66
2022/11/01 03:15:19;;;;;;;44.90;31.97;;;14.00;99.90;;;;;;5095201;28;20976;-66
2022/11/01 03:17:53;;;;;;;51.83;36.47;;;13.90;99.90;;;;;;5095160;28;20480;-66
2022/11/01 03:20:24;;;;;;;50.53;35.50;;;13.90;99.90;;;;;;5095110;28;20529;-66
2022/11/01 03:22:56;;;;;;;44.03;33.80;;;13.90;99.90;;;;;;5095106;28;20478;-66
2022/11/01 03:25:41;;;;;;;44.10;33.47;;;13.90;99.90;;;;;;5095718;28;20485;-65
2022/11/01 03:28:14;;;;;;;41.77;32.73;;;13.80;99.90;;;;;;5095568;28;20448;-66
2022/11/01 03:30:45;;;;;;;47.13;34.63;;;13.80;99.90;;;;;;5094608;28;20442;-66
2022/11/01 03:33:14;;;;;;;43.87;35.17;;;13.80;99.90;;;;;;5094998;28;20536;-66
2022/11/01 03:35:45;;;;;;;44.27;34.17;;;13.80;99.90;;;;;;5095026;28;20520;-66
2022/11/01 03:38:16;;;;;;;44.17;34.10;;;13.80;99.90;;;;;;5095012;28;20538;-66
2022/11/01 03:40:48;;;;;;;46.43;33.67;;;13.80;99.90;;;;;;5095041;28;20512;-66
2022/11/01 03:43:17;;;;;;;39.30;32.43;;;13.70;99.90;;;;;;5095160;28;20469;-66
2022/11/01 03:45:45;;;;;;;45.80;34.03;;;13.70;99.90;;;;;;5094820;28;20496;-66
2022/11/01 03:48:13;;;;;;;45.60;34.93;;;13.70;99.90;;;;;;5094924;28;20994;-66
2022/11/01 03:50:46;;;;;;;46.50;34.27;;;13.70;99.90;;;;;;5095024;28;20542;-66
2022/11/01 03:53:13;;;;;;;39.10;31.47;;;13.70;99.90;;;;;;5094980;28;20517;-65
2022/11/01 03:55:40;;;;;;;45.20;35.50;;;13.70;99.90;;;;;;5094539;28;20987;-66
2022/11/01 03:58:07;;;;;;;41.20;32.43;;;13.70;99.90;;;;;;5094891;28;20510;-65
2022/11/01 04:00:36;;;;;;;43.10;33.87;;;13.70;99.90;;;;;;5094950;28;20458;-66
2022/11/01 04:03:03;;;;;;;45.07;34.47;;;13.70;99.90;;;;;;5094668;28;20495;-66
2022/11/01 04:05:33;;;;;;;44.50;33.80;;;13.70;99.90;;;;;;5094869;28;20821;-65
2022/11/01 04:08:00;;;;;;;42.37;33.70;;;13.70;99.90;;;;;;5095022;28;20567;-68
2022/11/01 04:10:28;;;;;;;44.23;34.00;;;13.70;99.90;;;;;;5094648;28;20491;-66
2022/11/01 04:12:56;;;;;;;42.33;32.60;;;13.70;99.90;;;;;;5094365;28;20584;-66
2022/11/01 04:21:03;;;;;;;40.20;32.97;;;13.60;99.90;;;;;;5094420;28;20425;-66
2022/11/01 04:23:30;;;;;;;44.37;31.23;;;13.60;99.90;;;;;;5094871;28;20531;-66
2022/11/01 04:25:57;;;;;;;40.37;32.73;;;13.60;99.90;;;;;;5094330;28;20500;-65
2022/11/01 04:28:24;;;;;;;43.47;33.70;;;13.60;99.90;;;;;;5094464;28;20529;-65
2022/11/01 04:30:52;;;;;;;43.23;33.60;;;13.60;99.90;;;;;;5094267;28;20540;-65
2022/11/01 04:33:19;;;;;;;43.20;34.67;;;13.60;99.90;;;;;;5094193;28;20514;-66
2022/11/01 04:35:46;;;;;;;43.10;33.53;;;13.60;99.90;;;;;;5094051;28;20527;-65
2022/11/01 04:38:15;;;;;;;40.40;32.57;;;13.60;99.90;;;;;;5094766;28;20506;-65
2022/11/01 04:40:43;;;;;;;48.17;33.43;;;13.60;99.90;;;;;;5094947;28;20457;-65
2022/11/01 04:43:11;;;;;;;46.20;32.43;;;13.60;99.90;;;;;;5096802;28;20540;-66
2022/11/01 04:45:38;;;;;;;45.20;33.43;;;13.50;99.90;;;;;;5098914;28;20458;-66
2022/11/01 04:48:08;;;;;;;47.30;34.67;;;13.50;99.90;;;;;;5098839;28;20543;-67
2022/11/01 04:50:35;;;;;;;50.60;35.77;;;13.50;99.90;;;;;;5098504;28;20540;-65
2022/11/01 04:53:02;;;;;;;43.40;32.87;;;13.50;99.90;;;;;;5098502;28;20506;-67
2022/11/01 04:55:31;;;;;;;57.27;35.97;;;13.50;99.90;;;;;;5098004;28;20481;-65
2022/11/01 04:57:58;;;;;;;43.60;33.40;;;13.50;99.90;;;;;;5098199;28;20853;-66
2022/11/01 05:00:25;;;;;;;44.67;33.07;;;13.50;99.90;;;;;;5097829;28;20567;-66
2022/11/01 05:02:59;;;;;;;50.20;34.40;;;13.50;99.90;;;;;;5098035;28;20461;-66
2022/11/01 05:05:26;;;;;;;43.27;34.13;;;13.50;99.90;;;;;;5097807;28;20453;-66
2022/11/01 05:07:59;;;;;;;48.37;34.90;;;13.50;99.90;;;;;;5098049;28;20631;-65
2022/11/01 05:10:26;;;;;;;44.93;32.77;;;13.50;99.90;;;;;;5097907;28;20434;-66
2022/11/01 05:12:55;;;;;;;45.17;33.20;;;13.50;99.90;;;;;;5097951;28;20547;-66
2022/11/01 05:15:21;;;;;;;46.50;33.00;;;13.50;99.90;;;;;;5097744;28;20997;-66
2022/11/01 05:17:48;;;;;;;46.70;34.90;;;13.50;99.90;;;;;;5097772;28;20520;-65
2022/11/01 05:20:16;;;;;;;46.43;32.90;;;13.50;99.90;;;;;;5097546;28;20540;-66
2022/11/01 05:22:42;;;;;;;53.40;35.73;;;13.50;99.90;;;;;;5097426;28;20489;-65
2022/11/01 05:25:09;;;;;;;46.50;34.70;;;13.50;99.90;;;;;;5097783;28;20485;-66
2022/11/01 05:27:36;;;;;;;51.00;35.07;;;13.50;99.90;;;;;;5097708;28;20548;-65
2022/11/01 05:30:06;;;;;;;47.80;35.80;;;13.50;99.90;;;;;;5097433;28;20457;-66
2022/11/01 05:32:34;;;;;;;45.00;34.30;;;13.50;99.90;;;;;;5097231;28;20792;-66
2022/11/01 05:35:01;;;;;;;50.30;34.47;;;13.50;99.90;;;;;;5097297;28;20492;-66
2022/11/01 05:37:28;;;;;;;45.30;35.70;;;13.50;99.90;;;;;;5097175;28;20568;-66
2022/11/01 05:39:55;;;;;;;49.47;35.70;;;13.50;99.90;;;;;;5097472;28;20552;-66
2022/11/01 05:42:22;;;;;;;46.27;35.40;;;13.50;99.90;;;;;;5097503;28;20540;-66
2022/11/01 05:44:49;;;;;;;47.03;34.17;;;13.50;99.90;;;;;;5097348;28;20840;-65
2022/11/01 05:47:17;;;;;;;52.23;35.27;;;13.40;99.90;;;;;;5096937;28;20530;-65
2022/11/01 05:49:44;;;;;;;57.27;35.60;;;13.50;99.90;;;;;;5097086;28;20490;-66
2022/11/01 05:52:12;;;;;;;43.30;33.73;;;13.50;99.90;;;;;;5097111;28;20484;-66
2022/11/01 05:54:39;;;;;;;46.17;34.80;;;13.40;99.90;;;;;;5096274;28;20513;-65
2022/11/01 05:57:06;;;;;;;46.40;33.17;;;13.40;99.90;;;;;;5097015;28;20508;-66
2022/11/01 05:59:33;;;;;;;48.90;33.83;;;13.40;99.90;;;;;;5097259;28;20496;-65
2022/11/01 06:02:00;;;;;;;44.30;34.10;;;13.30;99.90;;;;;;5096665;28;20544;-65
2022/11/01 06:04:28;;;;;;;48.93;34.60;;;13.30;99.90;;;;;;5097095;28;20765;-65
2022/11/01 06:06:55;;;;;;;45.93;34.03;;;13.30;99.90;;;;;;5098630;28;20924;-65
2022/11/01 06:09:22;;;;;;;49.87;35.17;;;13.30;99.90;;;;;;5098517;28;20457;-65
2022/11/01 06:11:48;;;;;;;43.17;34.87;;;13.30;99.90;;;;;;5098798;28;20507;-65
2022/11/01 06:14:15;;;;;;;46.23;33.97;;;13.20;99.90;;;;;;5096767;28;21004;-65
2022/11/01 06:16:44;;;;;;;48.20;34.20;;;13.20;99.90;;;;;;5096410;28;20530;-65
2022/11/01 06:19:11;;;;;;;49.67;35.90;;;13.20;99.90;;;;;;5096235;28;20556;-66
2022/11/01 06:21:39;;;;;;;44.77;33.90;;;13.20;99.90;;;;;;5096338;28;20549;-66
2022/11/01 06:24:07;;;;;;;42.73;34.23;;;13.20;99.90;;;;;;5096863;28;20545;-65
2022/11/01 06:26:33;;;;;;;45.43;34.87;;;13.20;99.90;;;;;;5095942;28;20540;-65
2022/11/01 06:29:01;;;;;;;44.83;32.70;;;13.20;99.90;;;;;;5096039;28;20964;-66
2022/11/01 06:31:28;;;;;;;44.40;33.30;;;13.20;99.90;;;;;;5096205;28;20461;-67
2022/11/01 06:33:55;;;;;;;48.83;35.13;;;13.30;99.90;;;;;;5096145;28;20549;-65
2022/11/01 06:36:22;;;;;;;41.17;32.43;;;13.30;99.90;;;;;;5095707;28;20473;-67
2022/11/01 06:38:50;;;;;;;45.57;32.00;;;13.30;99.90;;;;;;5095659;28;20606;-67
2022/11/01 06:41:17;;;;;;;40.30;33.13;;;13.30;99.90;;;;;;5096071;28;20453;-67
2022/11/01 06:43:44;;;;;;;43.33;30.73;;;13.40;99.90;;;;;;5095972;28;20490;-67
2022/11/01 06:46:11;;;;;;;40.67;31.37;;;13.40;99.90;;;;;;5095921;28;20489;-66
2022/11/01 06:48:38;;;;;;;39.23;30.40;;;13.40;99.90;;;;;;5096436;28;20457;-67
2022/11/01 06:51:05;;;;;;;45.67;32.03;;;13.40;99.90;;;;;;5096024;28;20756;-67
2022/11/01 06:53:32;;;;;;;40.47;31.10;;;13.40;99.90;;;;;;5095708;28;20514;-66
2022/11/01 06:56:01;;;;;;;39.43;31.90;;;13.40;99.90;;;;;;5095826;28;20573;-67
2022/11/01 06:58:28;;;;;;;42.60;31.00;;;13.40;99.90;;;;;;5095680;28;20496;-68
2022/11/01 07:00:55;;;;;;;39.43;31.67;;;13.40;99.90;;;;;;5095791;28;20925;-65
2022/11/01 07:03:22;;;;;;;44.23;30.50;;;13.40;99.90;;;;;;5096038;28;20496;-66
2022/11/01 07:05:49;;;;;;;41.53;32.40;;;13.40;99.90;;;;;;5095377;28;20510;-66
2022/11/01 07:08:16;;;;;;;43.47;31.27;;;13.50;99.90;;;;;;5095514;28;20557;-65
2022/11/01 07:10:44;;;;;;;37.90;29.63;;;13.50;99.90;;;;;;5095752;28;20786;-66
2022/11/01 07:13:13;;;;;;;42.30;29.00;;;13.50;99.90;;;;;;5095533;28;20803;-66
2022/11/01 07:15:41;;;;;;;42.17;29.13;;;13.50;99.90;;;;;;5095154;28;20541;-65
2022/11/01 07:18:08;;;;;;;47.23;30.33;;;13.60;99.90;;;;;;5095681;28;20826;-66
2022/11/01 07:20:40;;;;;;;43.37;29.63;;;13.60;99.90;;;;;;5094969;28;20462;-66
2022/11/01 07:23:10;;;;;;;39.03;29.73;;;13.70;99.90;;;;;;5095175;28;20548;-66
2022/11/01 07:25:37;;;;;;;35.17;28.10;;;13.70;99.90;;;;;;5095086;28;20493;-66
2022/11/01 07:28:05;;;;;;;40.93;29.73;;;13.70;99.90;;;;;;5094847;28;20503;-66
2022/11/01 07:30:33;;;;;;;38.97;29.00;;;13.80;99.90;;;;;;5095294;28;20827;-67
2022/11/01 07:33:02;;;;;;;42.90;28.40;;;13.70;99.90;;;;;;5094882;28;20549;-65
2022/11/01 07:35:29;;;;;;;39.23;25.93;;;13.70;99.90;;;;;;5095508;28;20793;-66
2022/11/01 07:37:58;;;;;;;33.00;26.47;;;13.80;99.90;;;;;;5094902;28;20944;-67
2022/11/01 07:40:27;;;;;;;35.10;28.80;;;13.90;99.90;;;;;;5094944;28;20484;-67
2022/11/01 07:42:56;;;;;;;34.10;27.50;;;13.90;99.90;;;;;;5095017;28;20540;-66
2022/11/01 07:45:24;;;;;;;35.30;27.80;;;13.90;99.90;;;;;;5095073;28;20465;-67
2022/11/01 07:47:53;;;;;;;39.40;28.30;;;14.00;99.90;;;;;;5095173;28;20485;-67
2022/11/01 07:50:20;;;;;;;35.10;24.83;;;14.00;99.90;;;;;;5094693;28;20555;-66
2022/11/01 07:52:47;;;;;;;33.53;25.90;;;14.00;99.90;;;;;;5094778;28;20544;-66
2022/11/01 07:55:14;;;;;;;32.90;26.17;;;14.00;99.90;;;;;;5094411;28;20453;-67
2022/11/01 07:57:41;;;;;;;35.10;25.93;;;14.00;99.90;;;;;;5094913;28;20487;-67
2022/11/01 08:00:09;;;;;;;42.50;25.73;;;14.00;99.90;;;;;;5094473;28;20464;-67
2022/11/01 08:02:36;;;;;;;33.17;24.77;;;14.00;99.90;;;;;;5094909;28;20829;-66
2022/11/01 08:05:05;;;;;;;35.77;24.70;;;14.10;99.90;;;;;;5094324;28;20544;-66
2022/11/01 08:07:38;;;;;;;30.03;24.00;;;14.10;99.90;;;;;;5094399;28;20489;-66
2022/11/01 08:10:06;;;;;;;31.17;25.33;;;14.10;99.90;;;;;;5094579;28;20496;-67
2022/11/01 08:12:33;;;;;;;38.00;24.43;;;14.10;99.90;;;;;;5094401;28;20453;-67
2022/11/01 08:15:01;;;;;;;29.27;23.27;;;14.10;99.90;;;;;;5094544;28;20496;-66
2022/11/01 08:17:28;;;;;;;31.17;22.77;;;14.10;99.90;;;;;;5093990;28;20572;-67
2022/11/01 08:19:55;;;;;;;28.93;24.27;;;14.10;99.90;;;;;;5094359;28;20525;-67
2022/11/01 08:22:23;;;;;;;29.27;22.87;;;14.10;99.90;;;;;;5094830;28;20453;-67
2022/11/01 08:24:50;;;;;;;28.70;22.07;;;14.10;99.90;;;;;;5094391;28;20550;-66
2022/11/01 08:27:17;;;;;;;28.30;22.53;;;14.10;99.90;;;;;;5094204;28;20456;-66
2022/11/01 08:29:44;;;;;;;28.40;21.53;;;14.10;99.90;;;;;;5094260;28;20457;-67
2022/11/01 08:32:11;;;;;;;39.40;22.23;;;14.10;99.90;;;;;;5094355;28;20450;-66
2022/11/01 08:34:38;;;;;;;30.20;23.77;;;14.20;99.90;;;;;;5094367;28;20537;-66
2022/11/01 08:37:05;;;;;;;25.03;21.93;;;14.20;99.90;;;;;;5094270;28;20557;-66
2022/11/01 08:39:34;;;;;;;26.73;20.93;;;14.20;99.90;;;;;;5094848;28;20449;-66
2022/11/01 08:42:04;;;;;;;30.50;21.27;;;14.30;99.90;;;;;;5094083;28;20545;-67
2022/11/01 08:44:33;;;;;;;27.63;21.77;;;14.40;99.90;;;;;;5094085;28;20914;-67
2022/11/01 08:47:00;;;;;;;34.80;21.80;;;14.50;99.90;;;;;;5094242;28;20460;-66
2022/11/01 08:49:27;;;;;;;25.93;19.40;;;14.50;99.90;;;;;;5094417;28;20909;-68
2022/11/01 08:51:55;;;;;;;23.40;20.90;;;14.50;99.90;;;;;;5094385;28;20544;-66
2022/11/01 08:54:22;;;;;;;29.67;20.97;;;14.60;99.90;;;;;;5094231;28;20530;-65
2022/11/01 08:56:51;;;;;;;28.13;23.63;;;14.60;99.90;;;;;;5094882;28;20547;-66
2022/11/01 08:59:18;;;;;;;23.87;20.87;;;14.70;99.90;;;;;;5094580;28;20893;-66
2022/11/01 09:01:44;;;;;;;29.27;21.63;;;14.80;99.90;;;;;;5094856;28;20800;-66
2022/11/01 09:04:12;;;;;;;37.13;26.97;;;14.80;99.90;;;;;;5095347;28;20536;-68
2022/11/01 09:06:39;;;;;;;25.47;18.67;;;15.00;99.90;;;;;;5094370;28;20480;-67
2022/11/01 09:09:05;;;;;;;28.53;19.50;;;15.10;99.90;;;;;;5093968;28;20552;-67
2022/11/01 09:11:33;;;;;;;28.67;19.50;;;15.30;99.90;;;;;;5094360;28;20537;-68
2022/11/01 09:14:01;;;;;;;28.20;18.23;;;15.30;99.90;;;;;;5094560;28;20485;-67
2022/11/01 09:16:28;;;;;;;19.73;17.60;;;15.40;99.90;;;;;;5093713;28;20568;-67
2022/11/01 09:18:56;;;;;;;19.57;17.30;;;15.50;99.90;;;;;;5094548;28;20539;-66
2022/11/01 09:21:23;;;;;;;22.73;16.40;;;15.60;99.90;;;;;;5094977;28;20496;-66
2022/11/01 09:23:50;;;;;;;18.40;15.60;;;15.60;99.90;;;;;;5094419;28;20489;-65
2022/11/01 09:26:17;;;;;;;26.57;17.57;;;15.60;99.90;;;;;;5094519;28;20544;-66
2022/11/01 09:28:44;;;;;;;23.63;15.80;;;15.70;99.90;;;;;;5095701;28;20453;-66
2022/11/01 09:31:13;;;;;;;17.60;15.60;;;15.70;99.90;;;;;;5097424;28;21035;-66
2022/11/01 09:33:40;;;;;;;24.67;15.50;;;15.70;99.90;;;;;;5097897;28;20761;-66
2022/11/01 09:36:07;;;;;;;22.37;16.07;;;15.80;99.90;;;;;;5098480;28;20457;-67
2022/11/01 09:38:35;;;;;;;20.30;14.90;;;15.90;99.90;;;;;;5099385;28;20473;-67
2022/11/01 09:41:05;;;;;;;21.40;15.93;;;15.90;99.90;;;;;;5098891;28;20485;-67
2022/11/01 09:43:37;;;;;;;21.40;14.60;;;16.00;99.90;;;;;;5097435;28;20449;-66
2022/11/01 09:46:05;;;;;;;21.00;16.37;;;16.10;99.90;;;;;;5097326;28;20438;-66
2022/11/01 09:48:36;;;;;;;30.73;14.83;;;16.20;99.90;;;;;;5097153;28;20504;-65
2022/11/01 09:51:07;;;;;;;19.53;14.83;;;16.20;99.90;;;;;;5097369;28;20438;-67
2022/11/01 09:53:35;;;;;;;19.27;15.33;;;16.20;99.90;;;;;;5097331;28;20484;-66
2022/11/01 09:56:09;;;;;;;17.30;14.80;;;16.30;99.90;;;;;;5096823;28;20511;-67
2022/11/01 09:58:46;;;;;;;18.47;14.67;;;16.30;99.90;;;;;;5096995;28;20462;-65
2022/11/01 10:01:26;;;;;;;19.53;14.03;;;16.40;99.90;;;;;;5103293;28;20882;-69
2022/11/01 10:04:20;;;;;;;18.07;13.70;;;16.40;99.90;;;;;;5111307;28;20442;-67
2022/11/01 10:06:56;;;;;;;20.63;14.77;;;16.50;99.90;;;;;;5100149;28;20461;-67
2022/11/01 10:09:31;;;;;;;20.00;13.60;;;16.50;99.90;;;;;;5100021;28;20964;-66
2022/11/01 10:12:13;;;;;;;17.67;13.07;;;16.50;99.90;;;;;;5099659;28;20438;-67
2022/11/01 10:14:53;;;;;;;20.40;13.27;;;16.50;99.90;;;;;;5099730;28;20515;-67
2022/11/01 10:17:30;;;;;;;21.40;14.83;;;16.50;99.90;;;;;;5100153;28;20485;-68
2022/11/01 10:19:58;;;;;;;16.83;13.23;;;16.60;99.90;;;;;;5099660;28;20882;-67
2022/11/01 10:22:32;;;;;;;19.10;13.00;;;16.60;99.90;;;;;;5099251;28;20545;-67
2022/11/01 10:25:03;;;;;;;17.00;12.83;;;16.60;99.90;;;;;;5098897;28;20446;-68
2022/11/01 10:27:40;;;;;;;18.07;12.67;;;16.60;99.90;;;;;;5097832;28;20475;-66
2022/11/01 10:30:12;;;;;;;15.00;11.67;;;16.60;99.90;;;;;;5098970;28;20488;-68
2022/11/01 10:32:45;;;;;;;15.27;12.47;;;16.60;99.90;;;;;;5098820;28;20480;-67
2022/11/01 10:35:17;;;;;;;22.90;13.50;;;16.70;99.90;;;;;;5099834;28;20446;-67
2022/11/01 10:37:49;;;;;;;16.30;12.57;;;16.70;99.90;;;;;;5098981;28;20480;-66
2022/11/01 10:40:23;;;;;;;13.43;12.10;;;16.80;99.90;;;;;;5097370;28;20446;-66
2022/11/01 10:42:50;;;;;;;15.10;11.97;;;16.90;99.90;;;;;;5097974;28;20953;-67
2022/11/01 10:45:19;;;;;;;14.67;12.27;;;16.90;99.90;;;;;;5098164;28;20453;-68
2022/11/01 10:47:48;;;;;;;13.50;11.70;;;16.80;99.90;;;;;;5097910;28;20446;-67
2022/11/01 10:50:21;;;;;;;19.33;12.67;;;16.80;99.90;;;;;;5097979;28;20461;-67
2022/11/01 10:52:52;;;;;;;16.80;11.73;;;16.80;99.90;;;;;;5097810;28;20460;-67
2022/11/01 10:55:25;;;;;;;22.73;13.07;;;16.80;99.90;;;;;;5097142;28;20437;-67
2022/11/01 10:57:56;;;;;;;20.63;12.30;;;16.80;99.90;;;;;;5097253;28;20546;-67
2022/11/01 11:00:23;;;;;;;20.47;11.80;;;16.80;99.90;;;;;;5096846;28;20549;-67
2022/11/01 11:02:55;;;;;;;21.70;12.47;;;16.90;99.90;;;;;;5096544;28;20518;-67
2022/11/01 11:05:25;;;;;;;18.93;12.40;;;16.90;99.90;;;;;;5096589;28;20492;-67
2022/11/01 11:07:52;;;;;;;15.73;11.10;;;17.00;99.90;;;;;;5097508;28;20836;-67
2022/11/01 11:10:22;;;;;;;14.03;11.53;;;17.00;99.90;;;;;;5096666;28;20945;-67
2022/11/01 11:12:52;;;;;;;14.43;11.33;;;17.10;99.90;;;;;;5096950;28;20926;-68
2022/11/01 11:15:22;;;;;;;20.00;12.30;;;17.20;99.90;;;;;;5096951;28;20520;-68
2022/11/01 11:17:56;;;;;;;17.77;11.57;;;17.30;99.90;;;;;;5097422;28;20585;-67
2022/11/01 11:20:29;;;;;;;17.27;11.03;;;17.40;99.90;;;;;;5097553;28;20819;-67
2022/11/01 11:22:56;;;;;;;14.00;10.37;;;17.50;99.90;;;;;;5097011;28;20438;-67
2022/11/01 11:25:32;;;;;;;14.77;10.60;;;17.60;99.90;;;;;;5097222;28;20947;-66
2022/11/01 11:28:00;;;;;;;18.30;10.57;;;17.80;99.90;;;;;;5096310;28;20433;-66
2022/11/01 11:30:31;;;;;;;14.93;10.10;;;18.00;99.90;;;;;;5096559;28;20464;-66
2022/11/01 11:32:58;;;;;;;10.20;9.10;;;18.10;99.90;;;;;;5096893;28;20453;-67
2022/11/01 11:35:29;;;;;;;14.53;9.77;;;18.20;99.90;;;;;;5096807;28;20461;-66
2022/11/01 11:37:57;;;;;;;14.53;9.70;;;18.20;99.90;;;;;;5097499;28;20534;-66
2022/11/01 11:40:25;;;;;;;15.30;8.23;;;18.20;99.90;;;;;;5096586;28;20506;-67
2022/11/01 11:42:54;;;;;;;12.17;8.70;;;18.10;99.90;;;;;;5097048;28;20460;-66
2022/11/01 11:45:28;;;;;;;12.57;8.23;;;18.10;99.90;;;;;;5097142;28;20504;-67
2022/11/01 11:47:56;;;;;;;10.03;8.03;;;18.10;99.90;;;;;;5096412;28;20438;-67
2022/11/01 11:50:33;;;;;;;15.10;9.03;;;18.00;99.90;;;;;;5096573;28;20564;-67
2022/11/01 11:53:16;;;;;;;10.87;8.57;;;18.00;99.90;;;;;;5097174;28;20469;-66
2022/11/01 11:55:46;;;;;;;12.67;7.67;;;18.00;99.90;;;;;;5097855;28;20944;-68
2022/11/01 11:58:21;;;;;;;13.70;7.53;;;17.90;99.90;;;;;;5098347;28;20853;-66
2022/11/01 12:00:51;;;;;;;9.80;7.80;;;17.80;99.90;;;;;;5099705;28;20445;-67
2022/11/01 12:03:19;;;;;;;12.03;7.60;;;17.80;99.90;;;;;;5098623;28;20909;-67
2022/11/01 12:05:59;;;;;;;11.50;7.27;;;17.70;99.90;;;;;;5099169;28;20477;-66
2022/11/01 12:08:35;;;;;;;11.40;7.00;;;17.70;99.90;;;;;;5098644;28;20437;-67
2022/11/01 12:11:03;;;;;;;10.83;7.40;;;17.70;99.90;;;;;;5099119;28;20533;-68
2022/11/01 12:13:35;;;;;;;10.47;6.87;;;17.70;99.90;;;;;;5099480;28;20461;-67
2022/11/01 12:16:19;;;;;;;11.00;8.03;;;17.70;99.90;;;;;;5098685;28;20478;-67
2022/11/01 12:18:48;;;;;;;11.90;7.47;;;17.70;99.90;;;;;;5097602;28;20545;-68
2022/11/01 12:21:21;;;;;;;10.80;7.60;;;17.70;99.90;;;;;;5097712;28;20518;-67
2022/11/01 12:23:51;;;;;;;12.07;6.80;;;17.60;99.90;;;;;;5096959;28;20484;-68
2022/11/01 12:26:21;;;;;;;9.47;7.40;;;17.50;99.90;;;;;;5097837;28;20466;-68
2022/11/01 12:28:57;;;;;;;8.70;7.13;;;17.40;99.90;;;;;;5096563;28;20444;-67
2022/11/01 12:31:25;;;;;;;13.57;8.77;;;17.40;99.90;;;;;;5095997;28;20881;-67
2022/11/01 12:33:56;;;;;;;12.20;7.47;;;17.30;99.90;;;;;;5096514;28;20457;-68
2022/11/01 12:36:30;;;;;;;11.27;8.67;;;17.20;99.90;;;;;;5095749;28;20462;-67
2022/11/01 12:39:06;;;;;;;10.10;8.07;;;17.10;99.90;;;;;;5096574;28;20461;-67
2022/11/01 12:41:38;;;;;;;7.93;7.17;;;17.10;99.90;;;;;;5096378;28;20437;-66
2022/11/01 12:44:18;;;;;;;11.63;8.23;;;17.10;99.90;;;;;;5096971;28;20518;-67
2022/11/01 12:46:50;;;;;;;12.30;8.63;;;17.10;99.90;;;;;;5095753;28;20472;-67